Time;durP1;ratioP1;P1;durP2;ratioP2;P2;SDS_P1;SDS_P2;PMS_P1;PMS_P2;Temp;Humidity;BMP_temperature;BMP_pressure;BME280_temperature;BME280_humidity;BME280_pressure;Samples;Min_cycle;Max_cycle;Signal;HPM_P1;HPM_P2
2021/12/07 00:00:30;;;;;;;86.32;42.90;;;;;;;0.33;76.87;100063.78;2202006;80;31678;-82
2021/12/07 00:03:34;;;;;;;83.78;43.40;;;;;;;0.29;76.77;100062.07;2156775;80;28750;-73
2021/12/07 00:06:37;;;;;;;76.80;40.35;;;;;;;0.29;76.89;100056.34;2179051;81;29371;-72
2021/12/07 00:09:38;;;;;;;76.30;38.70;;;;;;;0.30;76.95;100054.59;2180025;81;27671;-79
2021/12/07 00:12:43;;;;;;;76.05;38.67;;;;;;;0.27;76.73;100058.11;2180162;81;29285;-69
2021/12/07 00:15:46;;;;;;;83.92;40.08;;;;;;;0.27;76.77;100064.70;2173906;81;31082;-71
2021/12/07 00:18:48;;;;;;;78.05;39.20;;;;;;;0.28;76.79;100059.86;2202528;80;33633;-72
2021/12/07 00:21:51;;;;;;;73.07;39.92;;;;;;;0.26;76.72;100059.00;2202371;80;29399;-70
2021/12/07 00:24:52;;;;;;;77.85;40.23;;;;;;;0.28;76.83;100056.38;2202636;80;27708;-65
2021/12/07 00:27:54;;;;;;;78.60;38.92;;;;;;;0.26;76.69;100059.47;2202414;80;30871;-66
2021/12/07 00:30:57;;;;;;;91.97;45.15;;;;;;;0.26;76.75;100064.27;2202747;80;33155;-68
2021/12/07 00:34:15;;;;;;;90.17;45.73;;;;;;;0.25;76.73;100057.72;2202724;80;33075;-66
2021/12/07 00:37:12;;;;;;;75.47;40.28;;;;;;;0.22;76.67;100061.27;2191180;80;29378;-73
2021/12/07 00:40:17;;;;;;;89.17;43.17;;;;;;;0.20;76.46;100056.45;2186066;81;27738;-66
2021/12/07 00:43:18;;;;;;;;;;;;;;;0.18;76.55;100061.30;2184820;81;28658;-67
2021/12/07 00:46:25;;;;;;;95.53;45.70;;;;;;;0.17;76.61;100059.58;2183798;81;33228;-77
2021/12/07 00:49:27;;;;;;;88.82;43.38;;;;;;;0.12;76.69;100059.17;2178340;81;33658;-65
2021/12/07 00:52:28;;;;;;;106.15;45.50;;;;;;;0.14;76.71;100057.83;2114527;84;29833;-68
2021/12/07 00:55:33;;;;;;;95.28;44.95;;;;;;;0.13;76.59;100054.34;2178848;81;27697;-68
2021/12/07 00:58:35;;;;;;;87.80;42.98;;;;;;;0.10;76.54;100055.69;2115109;84;28713;-67
2021/12/07 01:01:38;;;;;;;93.17;43.98;;;;;;;0.08;76.68;100051.33;2126088;82;33158;-67
2021/12/07 01:04:50;;;;;;;84.42;41.15;;;;;;;0.06;76.59;100051.33;2177068;81;33009;-67
2021/12/07 01:27:28;;;;;;;88.42;43.75;;;;;;;-0.19;76.64;100063.44;2153133;82;27766;-76
2021/12/07 01:30:42;;;;;;;91.95;43.52;;;;;;;-0.22;76.67;100063.89;2152928;82;28613;-75
2021/12/07 01:34:05;;;;;;;87.82;43.33;;;;;;;-0.27;76.66;100059.12;2197891;80;31220;-76
2021/12/07 01:37:16;;;;;;;83.27;42.90;;;;;;;-0.31;76.83;100051.68;2192250;80;32973;-75
2021/12/07 01:51:04;;;;;;;91.45;44.03;;;;;;;-0.23;77.12;100056.88;2153056;82;31041;-78
2021/12/07 02:00:35;;;;;;;95.70;42.67;;;;;;;-0.20;77.01;100061.69;2153061;82;27703;-66
2021/12/07 02:03:41;;;;;;;87.57;43.42;;;;;;;-0.21;76.91;100057.31;2153415;82;28612;-74
2021/12/07 02:06:43;;;;;;;87.22;44.15;;;;;;;-0.18;77.07;100062.55;2153126;82;30937;-68
2021/12/07 02:09:50;;;;;;;85.35;42.90;;;;;;;-0.17;76.94;100060.78;2185261;81;32963;-76
2021/12/07 02:12:50;;;;;;;87.05;42.75;;;;;;;-0.16;76.91;100058.58;2185438;81;29308;-76
2021/12/07 02:15:52;;;;;;;83.58;41.33;;;;;;;-0.20;76.76;100047.21;2186118;81;27667;-69
2021/12/07 02:18:54;;;;;;;88.25;43.50;;;;;;;-0.19;76.95;100041.06;2185550;81;28617;-68
2021/12/07 02:21:57;;;;;;;90.07;43.35;;;;;;;-0.21;76.90;100034.05;2185658;81;31766;-71
2021/12/07 02:24:59;;;;;;;95.80;45.85;;;;;;;-0.21;76.84;100036.25;2181730;81;33811;-68
2021/12/07 02:28:01;;;;;;;91.72;44.70;;;;;;;-0.20;77.02;100031.84;2180116;81;29319;-68
2021/12/07 02:31:03;;;;;;;82.25;41.70;;;;;;;-0.18;77.12;100027.02;2177490;81;27790;-73
2021/12/07 02:34:06;;;;;;;87.25;42.20;;;;;;;-0.17;76.80;100035.77;2114150;84;29500;-69
2021/12/07 02:37:08;;;;;;;81.82;43.73;;;;;;;-0.19;76.78;100042.80;2175896;81;32324;-67
2021/12/07 02:40:11;;;;;;;79.80;43.33;;;;;;;-0.22;76.67;100027.92;2198106;80;33347;-68
2021/12/07 02:43:12;;;;;;;80.70;39.83;;;;;;;-0.22;76.78;100032.30;2199774;80;30474;-67
2021/12/07 02:46:14;;;;;;;84.75;43.63;;;;;;;-0.23;76.61;100027.92;2199617;80;27681;-68
2021/12/07 02:49:16;;;;;;;80.83;40.33;;;;;;;-0.23;76.87;100019.59;2199485;80;28658;-77
2021/12/07 02:52:24;;;;;;;78.72;40.03;;;;;;;-0.19;76.89;100021.31;2199385;81;32292;-77
2021/12/07 02:55:26;;;;;;;83.05;39.95;;;;;;;-0.16;76.86;100016.45;2199601;80;33734;-68
2021/12/07 02:58:28;;;;;;;76.62;40.65;;;;;;;-0.17;76.81;100014.70;2198266;80;30424;-80
2021/12/07 03:01:35;;;;;;;72.95;38.13;;;;;;;-0.20;76.52;100017.36;2200532;80;27610;-71
2021/12/07 03:04:42;;;;;;;76.12;39.03;;;;;;;-0.21;76.76;100020.88;2198909;80;29163;-75
2021/12/07 03:07:49;;;;;;;71.75;38.05;;;;;;;-0.21;76.75;100022.20;2199089;80;31028;-71
2021/12/07 03:27:25;;;;;;;70.30;36.88;;;;;;;-0.22;76.56;100002.91;2166688;81;33010;-76
2021/12/07 03:30:27;;;;;;;71.92;37.90;;;;;;;-0.28;76.52;100002.11;2161729;81;30082;-74
2021/12/07 03:33:28;;;;;;;73.95;39.40;;;;;;;-0.31;76.56;100007.83;2140201;82;27511;-76
2021/12/07 03:36:30;;;;;;;71.60;37.58;;;;;;;-0.34;76.51;100005.67;2159183;81;29266;-75
2021/12/07 03:39:32;;;;;;;76.82;38.85;;;;;;;-0.34;76.65;100005.67;2184301;80;31103;-75
2021/12/07 03:42:34;;;;;;;80.03;39.60;;;;;;;-0.35;76.65;100005.25;2186386;81;33012;-78
2021/12/07 03:45:36;;;;;;;75.22;38.60;;;;;;;-0.37;76.65;100007.02;2185859;81;29529;-78
2021/12/07 03:48:38;;;;;;;77.95;39.27;;;;;;;-0.38;76.74;100017.97;2183176;81;27652;-77
2021/12/07 03:51:40;;;;;;;79.60;39.73;;;;;;;-0.37;76.70;100024.98;2186122;81;28626;-70
2021/12/07 03:54:42;;;;;;;79.30;39.80;;;;;;;-0.35;76.95;100028.94;2186064;81;30981;-71
2021/12/07 03:57:44;;;;;;;73.92;39.40;;;;;;;-0.29;77.02;100013.52;2184596;79;33753;-71
2021/12/07 04:00:47;;;;;;;83.50;38.35;;;;;;;-0.31;76.67;100010.45;2178580;81;29330;-75
2021/12/07 04:03:50;;;;;;;87.10;39.92;;;;;;;-0.32;76.68;100011.34;2184653;81;28511;-70
2021/12/07 04:06:51;;;;;;;76.02;38.00;;;;;;;-0.30;76.89;100006.05;2185884;81;28801;-77
2021/12/07 04:09:53;;;;;;;80.97;39.10;;;;;;;-0.28;76.83;100013.95;2182271;81;31385;-69
2021/12/07 04:12:55;;;;;;;85.47;39.98;;;;;;;-0.26;76.94;100015.67;2178536;81;32950;-69
2021/12/07 04:15:57;;;;;;;87.08;42.45;;;;;;;-0.22;76.77;100017.82;2183974;81;29327;-70
2021/12/07 04:18:59;;;;;;;90.75;42.48;;;;;;;-0.23;76.92;100011.70;2182994;81;27679;-68
2021/12/07 04:22:01;;;;;;;89.20;42.20;;;;;;;-0.21;76.76;100009.92;2178326;81;28644;-68
2021/12/07 04:25:06;;;;;;;90.97;42.55;;;;;;;-0.21;76.77;100001.14;2181809;81;31023;-67
2021/12/07 04:28:09;;;;;;;209.15;86.55;;;;;;;-0.23;76.62;100009.06;2181557;81;33835;-71
2021/12/07 04:31:12;;;;;;;170.40;70.45;;;;;;;-0.20;76.90;100009.47;2181677;81;29154;-69
2021/12/07 04:34:14;;;;;;;108.63;47.75;;;;;;;-0.18;76.90;100009.91;2178426;81;28129;-67
2021/12/07 04:37:15;;;;;;;100.80;42.00;;;;;;;-0.18;76.72;100006.37;2184707;81;29408;-68
2021/12/07 04:40:21;;;;;;;102.53;46.00;;;;;;;-0.23;76.78;100006.86;2182421;81;31295;-69
2021/12/07 04:43:23;;;;;;;110.08;46.35;;;;;;;-0.22;76.86;100011.23;2182008;81;33830;-74
2021/12/07 04:46:42;;;;;;;118.90;48.58;;;;;;;-0.21;76.94;100015.19;2115649;84;30524;-73
2021/12/07 04:59:26;;;;;;;121.70;48.73;;;;;;;-0.25;77.28;100029.72;2179543;80;34190;-66
2021/12/07 05:02:28;;;;;;;125.78;52.90;;;;;;;-0.24;77.24;100032.75;2178618;81;30335;-75
2021/12/07 05:05:35;;;;;;;122.65;49.58;;;;;;;-0.18;77.40;100032.28;2183972;81;27714;-66
2021/12/07 05:08:43;;;;;;;111.77;48.02;;;;;;;-0.18;77.23;100030.96;2183656;80;28630;-72
2021/12/07 05:12:02;;;;;;;118.33;49.50;;;;;;;-0.17;77.14;100037.08;2180495;81;30998;-69
2021/12/07 05:14:48;;;;;;;123.87;49.45;;;;;;;-0.16;77.21;100033.11;2181635;81;32960;-72
2021/12/07 05:24:23;;;;;;;117.55;49.53;;;;;;;-0.16;77.21;100033.11;2184249;81;28713;-72
2021/12/07 05:40:45;;;;;;;117.42;49.42;;;;;;;-0.15;77.30;100036.63;2178054;81;28722;-72
2021/12/07 05:43:47;;;;;;;118.42;49.15;;;;;;;-0.17;77.15;100039.29;2202768;80;31834;-77
2021/12/07 05:46:53;;;;;;;116.17;50.88;;;;;;;-0.17;77.12;100047.19;2203237;80;33009;-74
2021/12/07 05:49:55;;;;;;;109.32;48.17;;;;;;;-0.16;77.26;100046.27;2163156;81;29862;-68
2021/12/07 05:52:58;;;;;;;111.32;48.78;;;;;;;-0.18;77.25;100042.81;2203262;80;27616;-71
2021/12/07 05:55:59;;;;;;;103.50;45.95;;;;;;;-0.16;77.17;100050.22;2202669;80;28670;-75
2021/12/07 05:59:01;;;;;;;112.60;47.93;;;;;;;-0.18;77.15;100052.02;2202670;80;31509;-69
2021/12/07 06:02:05;;;;;;;109.83;47.20;;;;;;;-0.17;76.98;100056.83;2202889;80;33892;-77
2021/12/07 06:05:07;;;;;;;109.52;47.60;;;;;;;-0.19;77.21;100053.33;2203206;80;29322;-70
2021/12/07 06:08:09;;;;;;;105.52;46.50;;;;;;;-0.20;77.15;100048.53;2201313;80;28199;-73
2021/12/07 06:11:11;;;;;;;115.72;54.33;;;;;;;-0.18;77.30;100053.34;2164287;80;29473;-68
2021/12/07 06:14:18;;;;;;;101.22;47.58;;;;;;;-0.14;77.34;100054.59;2179391;81;31720;-77
2021/12/07 06:17:16;;;;;;;103.05;47.80;;;;;;;-0.12;77.30;100052.83;2171474;81;33120;-73
2021/12/07 06:20:19;;;;;;;102.00;46.83;;;;;;;-0.12;77.15;100050.20;2179314;81;29299;-69
2021/12/07 06:23:20;;;;;;;112.77;50.85;;;;;;;-0.12;77.21;100050.20;2179882;81;27663;-71
2021/12/07 06:26:22;;;;;;;100.95;47.10;;;;;;;-0.14;76.93;100058.55;2175974;81;28650;-77
2021/12/07 06:29:24;;;;;;;97.20;44.23;;;;;;;-0.15;76.96;100055.06;2124892;83;31815;-69
2021/12/07 06:32:26;;;;;;;116.00;52.65;;;;;;;-0.20;76.81;100051.16;2135803;82;32929;-73
2021/12/07 06:35:28;;;;;;;109.85;51.92;;;;;;;-0.23;76.84;100059.50;2202111;80;30531;-73
2021/12/07 06:38:33;;;;;;;197.10;89.28;;;;;;;-0.26;76.82;100057.79;2173315;81;28066;-74
2021/12/07 06:41:35;;;;;;;124.10;56.28;;;;;;;-0.28;76.82;100062.64;2169923;81;29511;-74
2021/12/07 06:44:36;;;;;;;162.18;76.25;;;;;;;-0.29;76.97;100062.22;2179703;81;31086;-80
2021/12/07 06:47:39;;;;;;;107.90;50.43;;;;;;;-0.31;77.03;100067.05;2173970;81;33092;-79
2021/12/07 06:50:42;;;;;;;109.63;50.75;;;;;;;-0.30;77.10;100069.22;2202404;80;29325;-76
2021/12/07 06:53:44;;;;;;;116.53;48.35;;;;;;;-0.34;76.90;100073.65;2163224;81;27521;-75
2021/12/07 06:56:46;;;;;;;143.05;66.33;;;;;;;-0.37;77.03;100080.25;2124907;83;28680;-76
2021/12/07 06:59:48;;;;;;;120.92;49.85;;;;;;;-0.37;77.06;100083.34;2140902;82;31839;-81
2021/12/07 07:02:50;;;;;;;156.37;70.70;;;;;;;-0.39;77.12;100086.42;2202672;80;33812;-79
2021/12/07 07:05:52;;;;;;;130.40;56.65;;;;;;;-0.35;77.30;100086.38;2202770;80;29310;-80
2021/12/07 07:08:54;;;;;;;595.88;288.27;;;;;;;-0.32;77.37;100085.47;2202483;80;27686;-76
2021/12/07 07:11:56;;;;;;;135.85;62.75;;;;;;;-0.29;77.32;100088.08;2162776;82;29474;-73
2021/12/07 07:14:58;;;;;;;142.68;58.85;;;;;;;-0.29;77.25;100085.91;2202563;80;31022;-70
2021/12/07 07:18:00;;;;;;;128.78;54.40;;;;;;;-0.29;77.25;100085.45;2202834;80;32944;-78
2021/12/07 07:21:02;;;;;;;141.77;57.33;;;;;;;-0.31;77.13;100084.16;2202595;80;29320;-78
2021/12/07 07:24:05;;;;;;;130.60;57.08;;;;;;;-0.30;77.14;100091.59;2202609;80;27712;-74
2021/12/07 07:27:07;;;;;;;135.85;56.85;;;;;;;-0.31;77.21;100093.38;2202575;80;28511;-71
2021/12/07 07:30:12;;;;;;;128.95;54.80;;;;;;;-0.32;77.14;100093.36;2165600;81;32396;-73
2021/12/07 07:33:13;;;;;;;124.45;52.95;;;;;;;-0.36;77.07;100090.35;2212958;79;33772;-78
2021/12/07 07:36:15;;;;;;;132.18;54.18;;;;;;;-0.37;77.20;100102.62;2202457;80;29402;-73
2021/12/07 07:39:17;;;;;;;131.10;56.75;;;;;;;-0.36;77.30;100108.77;2196153;80;27707;-74
2021/12/07 07:42:19;;;;;;;135.22;54.20;;;;;;;-0.39;77.24;100108.34;2182808;81;28683;-80
2021/12/07 07:45:21;;;;;;;134.75;53.68;;;;;;;-0.44;77.14;100107.52;2180206;81;31082;-78
2021/12/07 07:48:23;;;;;;;136.20;55.60;;;;;;;-0.42;77.41;100112.33;2190448;80;34187;-77
2021/12/07 07:51:25;;;;;;;145.53;55.03;;;;;;;-0.40;77.38;100114.48;2220563;80;29327;-75
2021/12/07 07:54:28;;;;;;;145.75;57.78;;;;;;;-0.37;77.43;100117.09;2190253;80;27540;-79
2021/12/07 07:57:30;;;;;;;129.50;52.90;;;;;;;-0.35;77.49;100111.84;2181439;81;28761;-72
2021/12/07 08:00:32;;;;;;;147.45;57.85;;;;;;;-0.35;77.33;100114.02;2152801;82;31783;-74
2021/12/07 08:03:35;;;;;;;145.47;55.10;;;;;;;-0.38;77.33;100109.23;2114726;84;32951;-78
2021/12/07 08:06:37;;;;;;;138.10;55.15;;;;;;;-0.38;77.48;100108.77;2150584;82;30101;-71
2021/12/07 08:09:38;;;;;;;137.50;55.92;;;;;;;-0.43;77.44;100105.32;2139613;82;27716;-73
2021/12/07 08:12:40;;;;;;;153.50;58.73;;;;;;;-0.41;77.56;100098.26;2176959;81;28624;-72
2021/12/07 08:15:43;;;;;;;138.77;56.05;;;;;;;-0.43;77.53;100086.01;2182694;80;31000;-63
2021/12/07 08:18:47;;;;;;;138.50;55.55;;;;;;;-0.41;77.82;100083.78;2181886;80;34299;-71
2021/12/07 08:21:49;;;;;;;131.12;51.83;;;;;;;-0.36;77.85;100081.14;2177915;81;30519;-65
2021/12/07 08:24:51;;;;;;;164.77;59.60;;;;;;;-0.29;77.83;100089.39;2179605;80;27752;-63
2021/12/07 08:27:53;;;;;;;162.32;58.28;;;;;;;-0.28;77.74;100102.13;2182251;80;29340;-66
2021/12/07 08:30:55;;;;;;;151.60;57.45;;;;;;;-0.25;77.90;100116.13;2188627;80;32167;-69
2021/12/07 08:33:57;;;;;;;148.62;54.27;;;;;;;-0.15;77.96;100127.46;2195282;81;34087;-71
2021/12/07 08:37:00;;;;;;;160.07;60.55;;;;;;;-0.01;78.04;100127.35;2147072;82;30685;-69
2021/12/07 08:40:02;;;;;;;146.47;54.90;;;;;;;0.10;77.82;100127.22;2140268;82;27849;-69
2021/12/07 08:43:04;;;;;;;151.10;54.60;;;;;;;0.15;77.64;100122.80;2138386;82;30808;-69
2021/12/07 08:46:08;;;;;;;122.98;49.80;;;;;;;0.21;77.54;100111.31;2179802;81;32279;-71
2021/12/07 08:49:10;;;;;;;144.90;55.55;;;;;;;0.24;77.53;100113.92;2169409;81;33231;-74
2021/12/07 08:52:13;;;;;;;146.15;57.03;;;;;;;0.28;77.50;100113.88;2155827;82;29263;-71
2021/12/07 09:01:40;;;;;;;141.22;53.83;;;;;;;0.30;77.35;100127.91;2153725;82;32288;-73
2021/12/07 09:04:41;;;;;;;122.60;51.25;;;;;;;0.37;77.46;100127.86;2154040;82;32989;-75
2021/12/07 09:07:45;;;;;;;138.35;51.77;;;;;;;0.41;77.28;100133.53;2116588;82;30538;-69
2021/12/07 09:10:47;;;;;;;136.22;54.25;;;;;;;0.42;77.21;100134.81;2173199;81;27614;-69
2021/12/07 09:13:50;;;;;;;139.18;53.20;;;;;;;0.48;77.16;100137.83;2166685;81;29822;-80
2021/12/07 09:16:52;;;;;;;117.17;48.48;;;;;;;0.51;77.34;100132.95;2158535;81;31454;-83
2021/12/07 09:19:54;;;;;;;130.47;50.65;;;;;;;0.56;77.15;100134.67;2146822;82;34287;-79
2021/12/07 09:22:55;;;;;;;126.27;49.33;;;;;;;0.60;77.15;100133.73;2126351;81;29774;-74
2021/12/07 09:25:57;;;;;;;125.45;51.58;;;;;;;0.62;76.98;100139.00;2146321;82;27618;-77
2021/12/07 09:29:00;;;;;;;122.62;50.12;;;;;;;0.67;77.13;100144.22;2180608;81;29739;-76
2021/12/07 09:32:03;;;;;;;120.65;51.30;;;;;;;0.74;77.18;100145.91;2170161;81;32033;-78
2021/12/07 09:35:07;;;;;;;103.17;43.38;;;;;;;0.78;76.86;100141.00;2178943;81;33727;-70
2021/12/07 09:38:11;;;;;;;120.62;46.85;;;;;;;0.81;76.76;100133.05;2172529;81;29538;-73
2021/12/07 09:41:15;;;;;;;111.47;46.25;;;;;;;0.87;76.85;100133.42;2176372;81;27323;-72
2021/12/07 09:44:17;;;;;;;110.15;46.55;;;;;;;0.86;76.59;100126.40;2146668;81;29714;-76
2021/12/07 09:47:19;;;;;;;111.95;45.45;;;;;;;0.91;76.57;100129.40;2148289;81;31424;-71
2021/12/07 09:50:23;;;;;;;112.03;46.50;;;;;;;0.88;76.31;100129.47;2138628;82;34425;-74
2021/12/07 09:53:27;;;;;;;123.70;47.23;;;;;;;0.83;76.03;100137.02;2123197;82;30602;-74
2021/12/07 09:56:29;;;;;;;108.10;45.65;;;;;;;0.78;76.03;100133.55;2158455;81;27714;-74
2021/12/07 09:59:31;;;;;;;110.00;47.70;;;;;;;0.72;76.28;100130.08;2121531;83;28482;-69
2021/12/07 10:02:33;;;;;;;108.85;46.58;;;;;;;0.75;76.42;100132.69;2122092;82;32229;-74
2021/12/07 10:05:36;;;;;;;106.12;47.78;;;;;;;0.74;76.06;100121.71;2109779;84;34349;-66
2021/12/07 10:08:39;;;;;;;100.90;43.52;;;;;;;0.70;75.97;100117.36;2130307;83;29744;-72
2021/12/07 10:11:41;;;;;;;103.85;47.05;;;;;;;0.72;76.05;100118.68;2123775;82;28209;-58
2021/12/07 10:14:47;;;;;;;106.43;46.90;;;;;;;0.69;75.92;100113.44;2148265;81;30003;-72
2021/12/07 10:18:15;;;;;;;108.78;48.30;;;;;;;0.69;76.15;100108.16;2165072;81;31029;-70
2021/12/07 10:21:38;;;;;;;86.25;41.00;;;;;;;0.72;76.08;100116.91;2164195;81;33001;-71
2021/12/07 10:24:48;;;;;;;88.92;40.03;;;;;;;0.75;75.81;100118.19;2165219;81;28167;-72
2021/12/07 10:27:54;;;;;;;76.10;38.13;;;;;;;0.74;75.75;100116.44;2128482;82;27799;-67
2021/12/07 10:31:15;;;;;;;75.28;35.33;;;;;;;0.75;75.45;100115.55;2134805;82;28864;-67
2021/12/07 10:34:30;;;;;;;81.20;39.90;;;;;;;0.79;75.21;100116.84;2146793;81;30904;-67
2021/12/07 10:37:32;;;;;;;84.42;39.95;;;;;;;0.82;75.54;100114.17;2106510;83;32949;-69
2021/12/07 10:40:34;;;;;;;88.03;41.53;;;;;;;0.81;75.60;100076.36;2145019;81;30195;-72
2021/12/07 10:43:52;;;;;;;82.85;39.98;;;;;;;0.99;75.31;100101.63;2128936;82;27697;-71
2021/12/07 10:47:07;;;;;;;81.45;41.20;;;;;;;1.08;75.39;100097.97;2127779;82;29935;-64
2021/12/07 10:50:13;;;;;;;80.20;39.75;;;;;;;1.14;75.03;100095.72;2146153;81;30947;-73
2021/12/07 10:53:13;;;;;;;77.10;38.50;;;;;;;1.20;74.79;100096.93;2146898;81;33199;-71
2021/12/07 10:56:38;;;;;;;76.25;39.65;;;;;;;1.23;74.50;100093.39;2093491;83;30553;-71
2021/12/07 10:59:54;;;;;;;69.30;36.13;;;;;;;1.21;74.59;100089.44;2122906;82;28210;-70
2021/12/07 11:03:04;;;;;;;75.92;39.03;;;;;;;1.23;74.70;100093.39;2122472;82;29335;-70
2021/12/07 11:06:06;;;;;;;77.32;39.00;;;;;;;1.30;74.63;100096.34;2146649;81;32024;-68
2021/12/07 11:09:08;;;;;;;74.53;38.23;;;;;;;1.35;74.54;100101.13;2144689;81;34178;-69
2021/12/07 11:12:14;;;;;;;71.72;36.45;;;;;;;1.41;74.31;100099.69;2143404;81;29120;-67
2021/12/07 11:15:24;;;;;;;69.50;36.63;;;;;;;1.37;73.96;100098.02;2146531;81;27703;-69
2021/12/07 11:18:42;;;;;;;70.95;37.63;;;;;;;1.33;73.83;100097.17;2146389;81;29151;-69
2021/12/07 11:21:44;;;;;;;72.82;38.08;;;;;;;1.34;74.29;100099.38;2151342;82;31897;-69
2021/12/07 11:24:48;;;;;;;67.27;35.78;;;;;;;1.28;74.01;100102.98;2148212;82;33933;-64
2021/12/07 11:31:21;;;;;;;70.05;35.73;;;;;;;1.25;74.07;100110.94;2148937;82;27605;-66
2021/12/07 11:34:32;;;;;;;59.42;31.87;;;;;;;1.18;73.93;100112.80;2148604;82;29889;-64
2021/12/07 11:37:39;;;;;;;69.42;35.03;;;;;;;1.16;73.85;100115.90;2147743;82;31164;-65
2021/12/07 11:40:42;;;;;;;72.00;38.40;;;;;;;1.12;73.57;100112.87;2164517;81;33065;-63
2021/12/07 11:44:07;;;;;;;77.62;41.98;;;;;;;1.06;73.58;100112.52;2192853;81;30468;-65
2021/12/07 11:47:09;;;;;;;74.53;37.50;;;;;;;0.97;73.63;100119.67;2193490;81;27681;-65
2021/12/07 11:50:20;;;;;;;73.75;36.08;;;;;;;0.91;73.87;100119.31;2192781;81;29939;-71
2021/12/07 11:53:24;;;;;;;77.62;41.15;;;;;;;0.84;73.67;100126.86;2193040;81;30553;-71
2021/12/07 11:56:27;;;;;;;68.07;34.27;;;;;;;0.80;73.98;100122.08;2193307;81;33817;-67
2021/12/07 11:59:29;;;;;;;61.83;32.80;;;;;;;0.77;73.77;100118.62;2193083;81;30238;-71
2021/12/07 12:02:32;;;;;;;69.53;35.80;;;;;;;0.73;73.97;100117.33;2192899;81;27798;-70
2021/12/07 12:05:36;;;;;;;62.30;32.33;;;;;;;0.77;74.09;100119.94;2193015;81;29472;-68
2021/12/07 12:08:38;;;;;;;64.93;32.90;;;;;;;0.72;73.71;100118.22;2193145;81;32245;-67
2021/12/07 12:12:03;;;;;;;70.00;34.15;;;;;;;0.71;74.05;100115.16;2193047;81;34276;-65
2021/12/07 12:15:38;;;;;;;68.40;33.08;;;;;;;0.74;74.19;100115.13;2193228;81;30607;-67
2021/12/07 12:19:20;;;;;;;69.55;33.50;;;;;;;0.77;74.09;100115.98;2193486;81;28098;-67
2021/12/07 12:22:43;;;;;;;63.75;33.78;;;;;;;0.71;73.73;100109.02;2155287;82;29536;-67
2021/12/07 12:25:56;;;;;;;62.53;33.15;;;;;;;0.67;73.72;100121.34;2155437;82;31885;-67
2021/12/07 12:28:58;;;;;;;60.67;34.38;;;;;;;0.68;74.01;100116.96;2167695;81;33420;-66
2021/12/07 12:32:00;;;;;;;68.28;37.45;;;;;;;0.72;74.29;100110.31;2193390;81;30571;-66
2021/12/07 12:35:07;;;;;;;69.55;37.15;;;;;;;0.77;74.00;100112.02;2193515;81;27633;-67
2021/12/07 12:38:26;;;;;;;60.58;32.55;;;;;;;0.78;74.10;100110.67;2192089;81;30744;-63
2021/12/07 12:41:30;;;;;;;59.13;31.80;;;;;;;0.79;73.99;100113.73;2192661;80;55452;-66
2021/12/07 12:44:35;;;;;;;63.38;35.55;;;;;;;0.77;73.84;100119.47;2163326;81;34236;-65
2021/12/07 12:47:40;;;;;;;57.30;30.02;;;;;;;0.71;73.77;100117.79;2192399;80;30446;-62
2021/12/07 12:50:51;;;;;;;55.52;29.50;;;;;;;0.66;73.66;100110.83;2183910;80;27620;-64
2021/12/07 12:53:54;;;;;;;59.33;32.20;;;;;;;0.62;73.57;100126.25;2193229;81;28666;-64
2021/12/07 12:57:10;;;;;;;53.87;29.55;;;;;;;0.53;73.45;100128.55;2192154;81;31023;-67
2021/12/07 13:00:13;;;;;;;61.18;31.52;;;;;;;0.48;73.54;100129.06;2192678;81;33583;-67
2021/12/07 13:03:15;;;;;;;63.90;31.33;;;;;;;0.47;73.66;100127.31;2193029;81;30172;-65
2021/12/07 13:06:38;;;;;;;57.95;30.27;;;;;;;0.48;73.75;100131.23;2192725;81;27706;-64
2021/12/07 13:09:44;;;;;;;58.42;30.80;;;;;;;0.44;73.70;100136.11;2193024;81;29228;-66
2021/12/07 13:12:48;;;;;;;59.88;31.68;;;;;;;0.43;73.63;100136.99;2193307;81;31945;-67
2021/12/07 13:15:50;;;;;;;62.60;30.52;;;;;;;0.42;73.65;100134.81;2193174;81;33017;-63
2021/12/07 13:19:06;;;;;;;54.93;29.55;;;;;;;0.42;73.76;100142.72;2193152;81;30297;-66
2021/12/07 13:22:08;;;;;;;58.00;29.80;;;;;;;0.43;73.78;100143.16;2192863;81;27700;-66
2021/12/07 13:25:21;;;;;;;58.48;30.60;;;;;;;0.45;73.62;100137.86;2164981;81;28893;-67
2021/12/07 13:28:27;;;;;;;61.90;31.15;;;;;;;0.41;73.50;100151.52;2191999;81;31408;-65
2021/12/07 13:31:46;;;;;;;68.57;36.65;;;;;;;0.41;73.69;100151.52;2201032;80;33781;-66
2021/12/07 13:35:02;;;;;;;75.52;39.00;;;;;;;0.43;73.58;100156.33;2222433;80;29738;-66
2021/12/07 13:38:29;;;;;;;77.27;36.98;;;;;;;0.43;73.92;100156.33;2191488;80;27675;-67
2021/12/07 13:41:31;;;;;;;66.12;33.95;;;;;;;0.48;73.94;100160.69;2191204;81;29908;-67
2021/12/07 13:44:47;;;;;;;56.48;29.77;;;;;;;0.47;73.66;100161.58;2189093;81;32120;-58
2021/12/07 13:47:52;;;;;;;63.92;33.42;;;;;;;0.42;73.35;100166.87;2166899;81;33174;-66
2021/12/07 13:50:56;;;;;;;66.77;32.90;;;;;;;0.36;73.72;100165.17;2153971;82;29434;-55
2021/12/07 13:54:00;;;;;;;69.32;35.63;;;;;;;0.39;73.93;100166.92;2154048;82;27657;-59
2021/12/07 13:57:02;;;;;;;68.90;34.92;;;;;;;0.44;74.07;100170.36;2162676;81;29970;-65
2021/12/07 14:00:15;;;;;;;63.40;33.88;;;;;;;0.44;73.88;100173.00;2189240;81;32033;-63
2021/12/07 14:03:19;;;;;;;60.38;33.70;;;;;;;0.47;74.08;100173.44;2189352;81;33615;-66
2021/12/07 14:06:23;;;;;;;68.95;36.38;;;;;;;0.49;74.00;100168.56;2188834;81;29389;-67
2021/12/07 14:09:26;;;;;;;71.05;36.98;;;;;;;0.50;73.93;100170.31;2189068;81;28092;-63
2021/12/07 14:12:29;;;;;;;73.35;38.53;;;;;;;0.50;74.01;100169.00;2188909;81;29919;-66
2021/12/07 14:15:43;;;;;;;68.02;36.65;;;;;;;0.50;74.09;100172.95;2164839;81;31898;-67
2021/12/07 14:18:46;;;;;;;71.82;38.88;;;;;;;0.49;74.04;100168.56;2130121;82;33774;-63
2021/12/07 14:21:48;;;;;;;76.57;40.28;;;;;;;0.47;73.83;100171.66;2154366;82;29746;-64
2021/12/07 14:24:52;;;;;;;76.57;36.33;;;;;;;0.40;73.68;100164.72;2128809;82;27647;-64
2021/12/07 14:27:55;;;;;;;65.17;34.30;;;;;;;0.35;73.78;100163.42;2174554;81;29980;-67
2021/12/07 14:31:20;;;;;;;73.22;41.80;;;;;;;0.31;73.81;100164.38;2189261;81;31021;-67
2021/12/07 14:34:27;;;;;;;69.25;36.30;;;;;;;0.27;73.78;100164.81;2189103;81;33046;-64
2021/12/07 14:37:29;;;;;;;64.00;34.08;;;;;;;0.24;73.85;100160.03;2189401;81;30058;-65
2021/12/07 14:40:31;;;;;;;67.90;34.35;;;;;;;0.21;73.97;100156.10;2189388;81;27636;-57
2021/12/07 14:43:34;;;;;;;64.87;33.18;;;;;;;0.18;74.03;100164.92;2190851;81;29906;-62
2021/12/07 14:46:36;;;;;;;69.17;37.08;;;;;;;0.14;73.96;100158.81;2191081;81;31068;-67
2021/12/07 14:49:43;;;;;;;69.30;33.73;;;;;;;0.12;74.16;100162.33;2191013;81;32987;-61
2021/12/07 14:52:45;;;;;;;63.00;32.55;;;;;;;0.10;73.98;100171.58;2190393;80;30390;-65
2021/12/07 14:55:48;;;;;;;66.70;34.18;;;;;;;0.06;74.04;100161.94;2189600;81;27755;-63
2021/12/07 14:58:54;;;;;;;71.30;36.03;;;;;;;0.06;74.25;100167.21;2166700;81;30003;-64
2021/12/07 15:01:58;;;;;;;70.47;34.55;;;;;;;0.05;74.23;100167.23;2191225;81;31100;-67
2021/12/07 15:05:04;;;;;;;88.10;43.30;;;;;;;0.05;74.31;100163.29;2191271;81;33925;-67
2021/12/07 15:08:07;;;;;;;105.92;53.15;;;;;;;0.03;74.22;100169.86;2191187;81;29387;-67
2021/12/07 15:11:10;;;;;;;100.42;53.08;;;;;;;0.01;74.30;100165.05;2191287;81;27608;-67
2021/12/07 15:14:21;;;;;;;73.40;36.55;;;;;;;-0.02;74.30;100165.10;2191184;81;28687;-67
2021/12/07 15:17:24;;;;;;;73.45;36.25;;;;;;;-0.02;74.47;100169.05;2191101;81;31543;-66
2021/12/07 15:20:26;;;;;;;81.63;39.67;;;;;;;-0.04;74.46;100177.41;2191299;81;33149;-64
2021/12/07 15:23:29;;;;;;;80.03;42.13;;;;;;;-0.01;74.67;100166.85;2167040;81;30560;-66
2021/12/07 15:26:32;;;;;;;74.10;37.13;;;;;;;-0.05;74.37;100160.71;2191286;81;27595;-66
2021/12/07 15:29:37;;;;;;;77.50;39.67;;;;;;;-0.11;74.31;100158.16;2190867;81;28712;-67
2021/12/07 15:32:39;;;;;;;79.50;39.80;;;;;;;-0.20;74.35;100161.73;2190962;81;31960;-64
2021/12/07 15:35:43;;;;;;;79.32;39.55;;;;;;;-0.24;74.49;100170.53;2191122;81;33801;-67